Terminal Aerodrome Forecast
Issued by NWS

Home | Current Version | Previous Version | Text Only | Print | Product List | Glossary On
Versions: 1 2 3 4 5 6 7 8 9 10 11 12 13
063
FTUS42 TJSJ 291720
TAFJPS
TAF
TJPS 291720Z 2918/3018 00000KT P6SM FEW030
     FM292330 07005KT P6SM FEW030 SCT060
     FM301400 13010KT P6SM SCT030 BKN050
      AMD NOT SKED TIL 300300=

USA.gov is the U.S. government's official web portal to all federal, state and local government web resources and services.